sensor_id;sensor_type;location;lat;lon;timestamp;pressure;altitude;pressure_sealevel;temperature;humidity
65010;BME280;51556;50.002;22.014;2023-01-28T00:00:28;99612.00;;;1.11;68.07
65010;BME280;51556;50.002;22.014;2023-01-28T00:02:54;99613.57;;;1.01;68.26
65010;BME280;51556;50.002;22.014;2023-01-28T00:05:19;99612.13;;;0.98;68.51
65010;BME280;51556;50.002;22.014;2023-01-28T00:07:50;99614.09;;;1.02;68.47
65010;BME280;51556;50.002;22.014;2023-01-28T00:10:16;99612.27;;;0.96;68.38
65010;BME280;51556;50.002;22.014;2023-01-28T00:12:42;99615.59;;;0.88;68.57
65010;BME280;51556;50.002;22.014;2023-01-28T00:15:08;99614.86;;;0.87;68.71
65010;BME280;51556;50.002;22.014;2023-01-28T00:17:35;99611.27;;;0.89;68.74
65010;BME280;51556;50.002;22.014;2023-01-28T00:20:02;99610.42;;;0.90;68.95
65010;BME280;51556;50.002;22.014;2023-01-28T00:22:28;99615.48;;;0.92;68.91
65010;BME280;51556;50.002;22.014;2023-01-28T00:24:53;99614.76;;;0.90;68.84
65010;BME280;51556;50.002;22.014;2023-01-28T00:27:18;99618.34;;;0.86;68.85
65010;BME280;51556;50.002;22.014;2023-01-28T00:29:44;99618.48;;;0.86;69.02
65010;BME280;51556;50.002;22.014;2023-01-28T00:32:09;99618.27;;;0.83;69.07
65010;BME280;51556;50.002;22.014;2023-01-28T00:34:35;99618.46;;;0.84;69.25
65010;BME280;51556;50.002;22.014;2023-01-28T00:37:00;99623.27;;;0.91;68.97
65010;BME280;51556;50.002;22.014;2023-01-28T00:39:26;99621.33;;;0.89;68.91
65010;BME280;51556;50.002;22.014;2023-01-28T00:41:51;99623.09;;;0.81;69.17
65010;BME280;51556;50.002;22.014;2023-01-28T00:44:18;99623.05;;;0.79;69.27
65010;BME280;51556;50.002;22.014;2023-01-28T00:46:44;99622.52;;;0.80;69.45
65010;BME280;51556;50.002;22.014;2023-01-28T00:49:09;99629.65;;;0.80;69.36
65010;BME280;51556;50.002;22.014;2023-01-28T00:51:36;99629.27;;;0.78;69.53
65010;BME280;51556;50.002;22.014;2023-01-28T00:54:01;99628.91;;;0.78;69.31
65010;BME280;51556;50.002;22.014;2023-01-28T00:56:27;99630.23;;;0.74;69.23
65010;BME280;51556;50.002;22.014;2023-01-28T00:58:54;99631.11;;;0.73;69.46
65010;BME280;51556;50.002;22.014;2023-01-28T01:01:21;99631.05;;;0.70;69.38
65010;BME280;51556;50.002;22.014;2023-01-28T01:03:49;99632.42;;;0.70;69.36
65010;BME280;51556;50.002;22.014;2023-01-28T01:06:28;99630.07;;;0.63;69.52
65010;BME280;51556;50.002;22.014;2023-01-28T01:08:54;99633.64;;;0.60;69.56
65010;BME280;51556;50.002;22.014;2023-01-28T01:11:20;99639.06;;;0.54;69.65
65010;BME280;51556;50.002;22.014;2023-01-28T01:13:57;99636.60;;;0.52;69.67
65010;BME280;51556;50.002;22.014;2023-01-28T01:16:25;99635.94;;;0.54;69.57
65010;BME280;51556;50.002;22.014;2023-01-28T01:18:52;99636.02;;;0.58;69.57
65010;BME280;51556;50.002;22.014;2023-01-28T01:21:21;99635.54;;;0.60;69.52
65010;BME280;51556;50.002;22.014;2023-01-28T01:23:47;99638.68;;;0.61;69.47
65010;BME280;51556;50.002;22.014;2023-01-28T01:26:13;99639.23;;;0.54;69.26
65010;BME280;51556;50.002;22.014;2023-01-28T01:28:39;99641.31;;;0.46;69.55
65010;BME280;51556;50.002;22.014;2023-01-28T01:31:09;99642.35;;;0.45;69.84
65010;BME280;51556;50.002;22.014;2023-01-28T01:33:35;99640.35;;;0.49;69.76
65010;BME280;51556;50.002;22.014;2023-01-28T01:36:01;99640.50;;;0.48;69.51
65010;BME280;51556;50.002;22.014;2023-01-28T01:38:27;99640.95;;;0.44;69.54
65010;BME280;51556;50.002;22.014;2023-01-28T01:40:57;99641.98;;;0.44;69.71
65010;BME280;51556;50.002;22.014;2023-01-28T01:43:24;99641.96;;;0.52;69.55
65010;BME280;51556;50.002;22.014;2023-01-28T01:45:57;99639.48;;;0.49;69.27
65010;BME280;51556;50.002;22.014;2023-01-28T01:48:31;99639.40;;;0.45;69.29
65010;BME280;51556;50.002;22.014;2023-01-28T01:51:01;99644.42;;;0.45;69.42
65010;BME280;51556;50.002;22.014;2023-01-28T01:53:29;99645.90;;;0.49;69.33
65010;BME280;51556;50.002;22.014;2023-01-28T01:55:59;99645.12;;;0.54;69.23
65010;BME280;51556;50.002;22.014;2023-01-28T01:58:26;99643.39;;;0.54;69.15
65010;BME280;51556;50.002;22.014;2023-01-28T02:00:53;99640.34;;;0.57;69.07
65010;BME280;51556;50.002;22.014;2023-01-28T02:03:24;99645.20;;;0.58;68.90
65010;BME280;51556;50.002;22.014;2023-01-28T02:05:52;99645.27;;;0.62;68.79
65010;BME280;51556;50.002;22.014;2023-01-28T02:08:18;99645.80;;;0.61;68.63
65010;BME280;51556;50.002;22.014;2023-01-28T02:10:55;99646.63;;;0.60;68.68
65010;BME280;51556;50.002;22.014;2023-01-28T02:13:28;99644.41;;;0.62;68.73
65010;BME280;51556;50.002;22.014;2023-01-28T02:15:58;99643.13;;;0.67;68.76
65010;BME280;51556;50.002;22.014;2023-01-28T02:18:24;99643.20;;;0.72;68.56
65010;BME280;51556;50.002;22.014;2023-01-28T02:24:04;99644.98;;;0.75;68.45
65010;BME280;51556;50.002;22.014;2023-01-28T02:26:49;99646.16;;;0.83;68.22
65010;BME280;51556;50.002;22.014;2023-01-28T02:29:49;99648.05;;;0.91;68.24
65010;BME280;51556;50.002;22.014;2023-01-28T02:32:24;99648.66;;;0.96;67.98
65010;BME280;51556;50.002;22.014;2023-01-28T02:35:02;99645.71;;;0.96;67.97
65010;BME280;51556;50.002;22.014;2023-01-28T02:37:39;99643.61;;;0.95;67.67
65010;BME280;51556;50.002;22.014;2023-01-28T02:40:19;99645.58;;;0.88;67.57
65010;BME280;51556;50.002;22.014;2023-01-28T02:42:46;99646.59;;;0.78;67.74
65010;BME280;51556;50.002;22.014;2023-01-28T02:45:27;99646.36;;;0.74;68.02
65010;BME280;51556;50.002;22.014;2023-01-28T02:48:16;99650.67;;;0.83;68.15
65010;BME280;51556;50.002;22.014;2023-01-28T02:50:54;99655.37;;;0.84;67.92
65010;BME280;51556;50.002;22.014;2023-01-28T02:53:33;99651.59;;;0.86;67.75
65010;BME280;51556;50.002;22.014;2023-01-28T02:56:27;99651.20;;;0.73;67.29
65010;BME280;51556;50.002;22.014;2023-01-28T03:05:16;99655.20;;;0.55;68.15
65010;BME280;51556;50.002;22.014;2023-01-28T03:07:45;99654.99;;;0.54;67.90
65010;BME280;51556;50.002;22.014;2023-01-28T03:10:15;99652.46;;;0.48;67.93
65010;BME280;51556;50.002;22.014;2023-01-28T03:12:43;99652.38;;;0.53;68.16
65010;BME280;51556;50.002;22.014;2023-01-28T03:15:34;99649.84;;;0.56;67.99
65010;BME280;51556;50.002;22.014;2023-01-28T03:21:21;99650.42;;;0.59;67.99
65010;BME280;51556;50.002;22.014;2023-01-28T03:24:12;99648.39;;;0.61;67.91
65010;BME280;51556;50.002;22.014;2023-01-28T03:29:54;99645.68;;;0.76;67.85
65010;BME280;51556;50.002;22.014;2023-01-28T03:32:40;99647.34;;;0.81;67.56
65010;BME280;51556;50.002;22.014;2023-01-28T03:35:28;99648.83;;;0.87;67.59
65010;BME280;51556;50.002;22.014;2023-01-28T03:38:14;99645.55;;;0.88;67.46
65010;BME280;51556;50.002;22.014;2023-01-28T03:40:55;99646.33;;;0.91;67.57
65010;BME280;51556;50.002;22.014;2023-01-28T03:43:21;99644.34;;;0.96;67.20
65010;BME280;51556;50.002;22.014;2023-01-28T03:45:47;99643.30;;;0.97;66.97
65010;BME280;51556;50.002;22.014;2023-01-28T03:48:20;99642.46;;;0.89;66.88
65010;BME280;51556;50.002;22.014;2023-01-28T03:50:47;99645.82;;;0.83;66.81
65010;BME280;51556;50.002;22.014;2023-01-28T03:53:13;99648.62;;;0.74;67.04
65010;BME280;51556;50.002;22.014;2023-01-28T03:55:46;99649.77;;;0.71;67.32
65010;BME280;51556;50.002;22.014;2023-01-28T03:58:12;99655.08;;;0.67;67.01
65010;BME280;51556;50.002;22.014;2023-01-28T04:00:38;99653.63;;;0.63;67.18
65010;BME280;51556;50.002;22.014;2023-01-28T04:03:08;99655.80;;;0.60;66.93
65010;BME280;51556;50.002;22.014;2023-01-28T04:05:45;99659.31;;;0.53;67.14
65010;BME280;51556;50.002;22.014;2023-01-28T04:08:11;99659.70;;;0.55;67.24
65010;BME280;51556;50.002;22.014;2023-01-28T04:10:38;99661.14;;;0.58;67.11
65010;BME280;51556;50.002;22.014;2023-01-28T04:13:05;99668.14;;;0.61;67.32
65010;BME280;51556;50.002;22.014;2023-01-28T04:15:31;99663.70;;;0.64;66.93
65010;BME280;51556;50.002;22.014;2023-01-28T04:17:56;99671.65;;;0.63;67.06
65010;BME280;51556;50.002;22.014;2023-01-28T04:20:22;99673.23;;;0.65;67.07
65010;BME280;51556;50.002;22.014;2023-01-28T04:22:47;99670.24;;;0.72;66.85
65010;BME280;51556;50.002;22.014;2023-01-28T04:25:13;99672.29;;;0.70;66.44
65010;BME280;51556;50.002;22.014;2023-01-28T04:27:38;99673.63;;;0.59;66.00
65010;BME280;51556;50.002;22.014;2023-01-28T04:30:04;99672.77;;;0.42;66.41
65010;BME280;51556;50.002;22.014;2023-01-28T04:32:29;99669.84;;;0.33;66.64
65010;BME280;51556;50.002;22.014;2023-01-28T04:34:55;99669.70;;;0.27;66.91
65010;BME280;51556;50.002;22.014;2023-01-28T04:37:20;99674.10;;;0.30;67.17
65010;BME280;51556;50.002;22.014;2023-01-28T04:39:46;99675.46;;;0.29;66.94
65010;BME280;51556;50.002;22.014;2023-01-28T04:42:11;99677.96;;;0.25;66.93
65010;BME280;51556;50.002;22.014;2023-01-28T04:44:37;99677.80;;;0.25;67.16
65010;BME280;51556;50.002;22.014;2023-01-28T04:47:02;99681.48;;;0.27;67.05
65010;BME280;51556;50.002;22.014;2023-01-28T04:49:28;99682.80;;;0.31;66.97
65010;BME280;51556;50.002;22.014;2023-01-28T04:51:53;99684.00;;;0.31;66.95
65010;BME280;51556;50.002;22.014;2023-01-28T04:54:19;99686.64;;;0.33;66.81
65010;BME280;51556;50.002;22.014;2023-01-28T04:56:44;99686.73;;;0.30;66.77
65010;BME280;51556;50.002;22.014;2023-01-28T04:59:10;99687.48;;;0.32;66.84
65010;BME280;51556;50.002;22.014;2023-01-28T05:01:35;99690.00;;;0.37;66.63
65010;BME280;51556;50.002;22.014;2023-01-28T05:04:01;99689.17;;;0.40;66.62
65010;BME280;51556;50.002;22.014;2023-01-28T05:06:30;99690.53;;;0.38;66.21
65010;BME280;51556;50.002;22.014;2023-01-28T05:08:56;99692.42;;;0.37;66.35
65010;BME280;51556;50.002;22.014;2023-01-28T05:11:22;99687.75;;;0.38;66.64
65010;BME280;51556;50.002;22.014;2023-01-28T05:13:48;99687.17;;;0.44;66.46
65010;BME280;51556;50.002;22.014;2023-01-28T05:16:13;99686.64;;;0.43;66.03
65010;BME280;51556;50.002;22.014;2023-01-28T05:18:39;99687.70;;;0.35;65.89
65010;BME280;51556;50.002;22.014;2023-01-28T05:21:04;99689.89;;;0.31;66.11
65010;BME280;51556;50.002;22.014;2023-01-28T05:23:30;99690.21;;;0.31;66.29
65010;BME280;51556;50.002;22.014;2023-01-28T05:25:55;99691.71;;;0.36;66.40
65010;BME280;51556;50.002;22.014;2023-01-28T05:28:20;99695.36;;;0.37;66.34
65010;BME280;51556;50.002;22.014;2023-01-28T05:30:46;99695.89;;;0.39;66.27
65010;BME280;51556;50.002;22.014;2023-01-28T05:33:11;99698.27;;;0.44;66.20
65010;BME280;51556;50.002;22.014;2023-01-28T05:35:37;99697.66;;;0.48;66.16
65010;BME280;51556;50.002;22.014;2023-01-28T05:38:02;99703.53;;;0.56;66.02
65010;BME280;51556;50.002;22.014;2023-01-28T05:40:28;99706.96;;;0.62;65.90
65010;BME280;51556;50.002;22.014;2023-01-28T05:42:54;99705.36;;;0.69;65.79
65010;BME280;51556;50.002;22.014;2023-01-28T05:45:19;99706.31;;;0.74;65.49
65010;BME280;51556;50.002;22.014;2023-01-28T05:47:44;99708.27;;;0.78;65.39
65010;BME280;51556;50.002;22.014;2023-01-28T05:50:12;99710.10;;;0.82;65.36
65010;BME280;51556;50.002;22.014;2023-01-28T05:52:38;99715.36;;;0.85;65.16
65010;BME280;51556;50.002;22.014;2023-01-28T05:55:04;99714.89;;;0.88;64.97
65010;BME280;51556;50.002;22.014;2023-01-28T05:57:29;99712.36;;;0.91;64.91
65010;BME280;51556;50.002;22.014;2023-01-28T05:59:55;99709.48;;;0.95;64.65
65010;BME280;51556;50.002;22.014;2023-01-28T06:02:20;99710.23;;;0.98;64.68
65010;BME280;51556;50.002;22.014;2023-01-28T06:04:46;99715.08;;;0.98;64.46
65010;BME280;51556;50.002;22.014;2023-01-28T06:07:11;99717.22;;;1.01;64.70
65010;BME280;51556;50.002;22.014;2023-01-28T06:09:38;99712.04;;;1.02;64.37
65010;BME280;51556;50.002;22.014;2023-01-28T06:12:04;99715.18;;;1.03;64.28
65010;BME280;51556;50.002;22.014;2023-01-28T06:14:29;99719.19;;;1.05;64.26
65010;BME280;51556;50.002;22.014;2023-01-28T06:16:55;99719.37;;;1.05;64.28
65010;BME280;51556;50.002;22.014;2023-01-28T06:19:20;99725.33;;;1.08;64.28
65010;BME280;51556;50.002;22.014;2023-01-28T06:21:46;99728.16;;;1.13;64.29
65010;BME280;51556;50.002;22.014;2023-01-28T06:24:11;99728.75;;;1.16;64.15
65010;BME280;51556;50.002;22.014;2023-01-28T06:26:38;99727.98;;;1.22;63.99
65010;BME280;51556;50.002;22.014;2023-01-28T06:29:03;99731.86;;;1.24;63.83
65010;BME280;51556;50.002;22.014;2023-01-28T06:31:29;99734.29;;;1.25;64.05
65010;BME280;51556;50.002;22.014;2023-01-28T06:33:55;99737.56;;;1.24;63.96
65010;BME280;51556;50.002;22.014;2023-01-28T06:36:20;99737.21;;;1.23;63.85
65010;BME280;51556;50.002;22.014;2023-01-28T06:38:45;99736.70;;;1.15;63.57
65010;BME280;51556;50.002;22.014;2023-01-28T06:41:11;99737.01;;;1.13;64.12
65010;BME280;51556;50.002;22.014;2023-01-28T06:43:36;99741.68;;;1.12;64.17
65010;BME280;51556;50.002;22.014;2023-01-28T06:46:02;99749.29;;;1.10;63.85
65010;BME280;51556;50.002;22.014;2023-01-28T06:48:28;99755.00;;;1.09;64.36
65010;BME280;51556;50.002;22.014;2023-01-28T06:50:53;99760.26;;;1.14;64.22
65010;BME280;51556;50.002;22.014;2023-01-28T06:53:19;99766.58;;;1.18;64.00
65010;BME280;51556;50.002;22.014;2023-01-28T06:55:45;99761.91;;;1.19;63.83
65010;BME280;51556;50.002;22.014;2023-01-28T06:58:10;99763.32;;;1.20;63.75
65010;BME280;51556;50.002;22.014;2023-01-28T07:00:36;99763.02;;;1.22;63.74
65010;BME280;51556;50.002;22.014;2023-01-28T07:03:02;99765.98;;;1.23;63.54
65010;BME280;51556;50.002;22.014;2023-01-28T07:05:28;99768.56;;;1.22;63.52
65010;BME280;51556;50.002;22.014;2023-01-28T07:07:53;99769.63;;;1.22;63.20
65010;BME280;51556;50.002;22.014;2023-01-28T07:10:18;99767.46;;;1.19;63.62
65010;BME280;51556;50.002;22.014;2023-01-28T07:12:44;99771.30;;;1.20;63.66
65010;BME280;51556;50.002;22.014;2023-01-28T07:15:10;99771.15;;;1.21;63.61
65010;BME280;51556;50.002;22.014;2023-01-28T07:17:40;99772.60;;;1.24;63.71
65010;BME280;51556;50.002;22.014;2023-01-28T07:20:07;99768.69;;;1.27;63.68
65010;BME280;51556;50.002;22.014;2023-01-28T07:22:32;99773.42;;;1.31;63.49
65010;BME280;51556;50.002;22.014;2023-01-28T07:24:58;99776.38;;;1.31;63.10
65010;BME280;51556;50.002;22.014;2023-01-28T07:27:25;99777.70;;;1.28;63.27
65010;BME280;51556;50.002;22.014;2023-01-28T07:29:51;99783.59;;;1.27;63.26
65010;BME280;51556;50.002;22.014;2023-01-28T07:32:16;99788.43;;;1.27;63.11
65010;BME280;51556;50.002;22.014;2023-01-28T07:34:42;99791.92;;;1.19;62.92
65010;BME280;51556;50.002;22.014;2023-01-28T07:37:08;99793.50;;;1.10;63.00
65010;BME280;51556;50.002;22.014;2023-01-28T07:39:34;99795.60;;;1.12;63.60
65010;BME280;51556;50.002;22.014;2023-01-28T07:42:00;99795.24;;;1.11;63.30
65010;BME280;51556;50.002;22.014;2023-01-28T07:44:26;99797.10;;;1.08;63.43
65010;BME280;51556;50.002;22.014;2023-01-28T07:46:51;99796.80;;;1.10;63.44
65010;BME280;51556;50.002;22.014;2023-01-28T07:49:17;99797.14;;;1.09;62.98
65010;BME280;51556;50.002;22.014;2023-01-28T07:51:42;99794.94;;;1.03;63.27
65010;BME280;51556;50.002;22.014;2023-01-28T07:54:10;99795.77;;;1.02;63.46
65010;BME280;51556;50.002;22.014;2023-01-28T07:56:36;99797.11;;;0.99;63.31
65010;BME280;51556;50.002;22.014;2023-01-28T07:59:01;99798.67;;;0.99;63.75
65010;BME280;51556;50.002;22.014;2023-01-28T08:01:27;99797.71;;;1.04;63.66
65010;BME280;51556;50.002;22.014;2023-01-28T08:03:52;99796.65;;;1.03;63.56
65010;BME280;51556;50.002;22.014;2023-01-28T08:06:18;99794.73;;;1.01;63.90
65010;BME280;51556;50.002;22.014;2023-01-28T08:08:43;99797.83;;;1.09;63.93
65010;BME280;51556;50.002;22.014;2023-01-28T08:11:09;99801.10;;;1.19;63.66
65010;BME280;51556;50.002;22.014;2023-01-28T08:13:36;99800.73;;;1.26;63.78
65010;BME280;51556;50.002;22.014;2023-01-28T08:16:01;99803.38;;;1.37;63.43
65010;BME280;51556;50.002;22.014;2023-01-28T08:18:27;99804.60;;;1.48;63.36
65010;BME280;51556;50.002;22.014;2023-01-28T08:20:57;99800.39;;;1.56;63.10
65010;BME280;51556;50.002;22.014;2023-01-28T08:23:23;99808.30;;;1.61;62.92
65010;BME280;51556;50.002;22.014;2023-01-28T08:25:51;99809.24;;;1.65;62.91
65010;BME280;51556;50.002;22.014;2023-01-28T08:28:17;99809.45;;;1.67;62.44
65010;BME280;51556;50.002;22.014;2023-01-28T08:30:43;99810.18;;;1.69;62.57
65010;BME280;51556;50.002;22.014;2023-01-28T08:33:10;99811.13;;;1.74;62.39
65010;BME280;51556;50.002;22.014;2023-01-28T08:35:36;99808.20;;;1.75;62.54
65010;BME280;51556;50.002;22.014;2023-01-28T08:38:04;99808.84;;;1.81;62.51
65010;BME280;51556;50.002;22.014;2023-01-28T08:40:30;99807.16;;;1.86;62.25
65010;BME280;51556;50.002;22.014;2023-01-28T08:42:55;99807.05;;;1.90;62.22
65010;BME280;51556;50.002;22.014;2023-01-28T08:45:23;99807.81;;;1.94;62.27
65010;BME280;51556;50.002;22.014;2023-01-28T08:48:03;99799.10;;;1.92;61.82
65010;BME280;51556;50.002;22.014;2023-01-28T08:50:32;99804.55;;;1.86;61.82
65010;BME280;51556;50.002;22.014;2023-01-28T08:53:03;99806.80;;;1.86;62.13
65010;BME280;51556;50.002;22.014;2023-01-28T08:55:29;99807.52;;;1.76;62.18
65010;BME280;51556;50.002;22.014;2023-01-28T08:57:55;99807.38;;;1.78;62.54
65010;BME280;51556;50.002;22.014;2023-01-28T09:00:21;99815.05;;;1.79;62.13
65010;BME280;51556;50.002;22.014;2023-01-28T09:02:50;99815.98;;;1.73;62.22
65010;BME280;51556;50.002;22.014;2023-01-28T09:05:17;99821.04;;;1.65;62.37
65010;BME280;51556;50.002;22.014;2023-01-28T09:07:42;99822.36;;;1.62;62.11
65010;BME280;51556;50.002;22.014;2023-01-28T09:10:08;99825.10;;;1.50;62.28
65010;BME280;51556;50.002;22.014;2023-01-28T09:12:35;99824.26;;;1.52;63.02
65010;BME280;51556;50.002;22.014;2023-01-28T09:15:01;99824.65;;;1.54;62.78
65010;BME280;51556;50.002;22.014;2023-01-28T09:17:32;99827.39;;;1.61;62.83
65010;BME280;51556;50.002;22.014;2023-01-28T09:20:01;99827.20;;;1.61;62.83
65010;BME280;51556;50.002;22.014;2023-01-28T09:22:26;99825.26;;;1.68;62.91
65010;BME280;51556;50.002;22.014;2023-01-28T09:24:52;99824.48;;;1.73;62.57
65010;BME280;51556;50.002;22.014;2023-01-28T09:27:17;99822.83;;;1.78;62.55
65010;BME280;51556;50.002;22.014;2023-01-28T09:29:43;99826.95;;;1.86;62.41
65010;BME280;51556;50.002;22.014;2023-01-28T09:32:08;99826.59;;;1.85;61.46
65010;BME280;51556;50.002;22.014;2023-01-28T09:34:34;99827.71;;;1.79;61.83
65010;BME280;51556;50.002;22.014;2023-01-28T09:37:00;99828.42;;;1.80;62.16
65010;BME280;51556;50.002;22.014;2023-01-28T09:39:25;99825.21;;;1.86;62.06
65010;BME280;51556;50.002;22.014;2023-01-28T09:42:38;99825.55;;;1.86;61.80
65010;BME280;51556;50.002;22.014;2023-01-28T09:45:27;99819.38;;;1.90;61.78
65010;BME280;51556;50.002;22.014;2023-01-28T09:47:59;99814.94;;;1.95;61.61
65010;BME280;51556;50.002;22.014;2023-01-28T09:50:36;99810.39;;;1.93;60.98
65010;BME280;51556;50.002;22.014;2023-01-28T09:55:45;99804.95;;;1.58;61.50
65010;BME280;51556;50.002;22.014;2023-01-28T09:58:14;99806.34;;;1.49;62.47
65010;BME280;51556;50.002;22.014;2023-01-28T10:19:41;99792.19;;;1.24;63.44
65010;BME280;51556;50.002;22.014;2023-01-28T10:22:13;99794.89;;;1.29;63.18
65010;BME280;51556;50.002;22.014;2023-01-28T10:24:45;99798.85;;;1.28;63.51
65010;BME280;51556;50.002;22.014;2023-01-28T10:27:22;99800.05;;;1.36;63.27
65010;BME280;51556;50.002;22.014;2023-01-28T10:29:51;99799.73;;;1.38;63.34
65010;BME280;51556;50.002;22.014;2023-01-28T10:32:29;99793.66;;;1.46;63.22
65010;BME280;51556;50.002;22.014;2023-01-28T10:34:56;99794.46;;;1.54;63.02
65010;BME280;51556;50.002;22.014;2023-01-28T10:37:26;99790.50;;;1.65;63.15
65010;BME280;51556;50.002;22.014;2023-01-28T10:39:56;99791.56;;;1.76;62.69
65010;BME280;51556;50.002;22.014;2023-01-28T10:42:30;99788.75;;;1.75;62.42
65010;BME280;51556;50.002;22.014;2023-01-28T10:44:59;99789.02;;;1.80;62.73
65010;BME280;51556;50.002;22.014;2023-01-28T10:47:37;99786.39;;;1.91;62.27
65010;BME280;51556;50.002;22.014;2023-01-28T10:50:04;99788.09;;;1.99;62.17
65010;BME280;51556;50.002;22.014;2023-01-28T10:52:29;99786.48;;;2.08;62.30
65010;BME280;51556;50.002;22.014;2023-01-28T10:55:04;99780.36;;;2.15;61.64
65010;BME280;51556;50.002;22.014;2023-01-28T10:57:32;99778.98;;;2.15;61.98
65010;BME280;51556;50.002;22.014;2023-01-28T11:00:20;99778.70;;;2.20;61.63
65010;BME280;51556;50.002;22.014;2023-01-28T11:02:48;99772.89;;;2.15;60.97
65010;BME280;51556;50.002;22.014;2023-01-28T11:07:41;99771.69;;;2.05;62.14
65010;BME280;51556;50.002;22.014;2023-01-28T11:10:27;99765.45;;;2.06;62.22
65010;BME280;51556;50.002;22.014;2023-01-28T11:12:57;99766.13;;;2.16;61.14
65010;BME280;51556;50.002;22.014;2023-01-28T11:15:23;99761.48;;;2.18;61.76
65010;BME280;51556;50.002;22.014;2023-01-28T11:18:01;99756.23;;;2.31;61.57
65010;BME280;51556;50.002;22.014;2023-01-28T11:20:39;99755.39;;;2.44;61.48
65010;BME280;51556;50.002;22.014;2023-01-28T11:23:05;99752.67;;;2.48;61.12
65010;BME280;51556;50.002;22.014;2023-01-28T11:25:35;99755.02;;;2.54;61.03
65010;BME280;51556;50.002;22.014;2023-01-28T11:28:14;99751.44;;;2.62;60.41
65010;BME280;51556;50.002;22.014;2023-01-28T11:30:42;99750.98;;;2.66;59.95
65010;BME280;51556;50.002;22.014;2023-01-28T11:33:23;99751.67;;;2.67;60.17
65010;BME280;51556;50.002;22.014;2023-01-28T11:35:54;99750.97;;;2.66;60.27
65010;BME280;51556;50.002;22.014;2023-01-28T11:38:22;99743.95;;;2.74;60.20
65010;BME280;51556;50.002;22.014;2023-01-28T11:40:53;99745.80;;;2.83;59.98
65010;BME280;51556;50.002;22.014;2023-01-28T11:43:26;99747.09;;;2.88;60.27
65010;BME280;51556;50.002;22.014;2023-01-28T11:46:16;99748.63;;;2.86;60.34
65010;BME280;51556;50.002;22.014;2023-01-28T11:51:34;99747.73;;;2.84;59.48
65010;BME280;51556;50.002;22.014;2023-01-28T11:57:06;99749.29;;;3.00;59.28
65010;BME280;51556;50.002;22.014;2023-01-28T12:02:33;99741.09;;;2.97;58.13
65010;BME280;51556;50.002;22.014;2023-01-28T12:07:53;99742.11;;;2.93;58.88
65010;BME280;51556;50.002;22.014;2023-01-28T12:21:05;99737.92;;;3.26;58.13
65010;BME280;51556;50.002;22.014;2023-01-28T12:26:25;99745.93;;;3.27;58.27
65010;BME280;51556;50.002;22.014;2023-01-28T12:32:15;99744.60;;;3.33;58.25
65010;BME280;51556;50.002;22.014;2023-01-28T12:43:03;99751.04;;;3.33;57.53
65010;BME280;51556;50.002;22.014;2023-01-28T12:45:37;99751.20;;;3.31;57.80
65010;BME280;51556;50.002;22.014;2023-01-28T12:48:18;99751.58;;;3.37;58.09
65010;BME280;51556;50.002;22.014;2023-01-28T12:51:20;99753.56;;;3.45;57.79
65010;BME280;51556;50.002;22.014;2023-01-28T12:53:54;99745.96;;;3.50;57.25
65010;BME280;51556;50.002;22.014;2023-01-28T12:56:26;99749.30;;;3.52;57.25
65010;BME280;51556;50.002;22.014;2023-01-28T12:59:12;99745.66;;;3.55;57.56
65010;BME280;51556;50.002;22.014;2023-01-28T13:01:50;99747.77;;;3.58;57.22
65010;BME280;51556;50.002;22.014;2023-01-28T13:04:39;99746.81;;;3.47;56.03
65010;BME280;51556;50.002;22.014;2023-01-28T13:07:14;99751.83;;;3.25;56.65
65010;BME280;51556;50.002;22.014;2023-01-28T13:09:50;99754.19;;;3.19;56.83
65010;BME280;51556;50.002;22.014;2023-01-28T13:12:17;99757.56;;;3.09;57.49
65010;BME280;51556;50.002;22.014;2023-01-28T13:14:44;99762.05;;;3.07;57.36
65010;BME280;51556;50.002;22.014;2023-01-28T13:20:49;99766.35;;;3.17;57.76
65010;BME280;51556;50.002;22.014;2023-01-28T13:23:36;99764.80;;;3.19;57.66
65010;BME280;51556;50.002;22.014;2023-01-28T13:28:48;99770.42;;;3.23;57.83
65010;BME280;51556;50.002;22.014;2023-01-28T13:31:19;99771.31;;;3.25;57.84
65010;BME280;51556;50.002;22.014;2023-01-28T13:33:59;99776.67;;;3.22;56.88
65010;BME280;51556;50.002;22.014;2023-01-28T13:36:32;99779.66;;;3.10;57.05
65010;BME280;51556;50.002;22.014;2023-01-28T13:42:07;99783.69;;;2.97;57.63
65010;BME280;51556;50.002;22.014;2023-01-28T13:44:35;99778.81;;;2.95;57.67
65010;BME280;51556;50.002;22.014;2023-01-28T13:52:43;99789.85;;;3.04;58.05
65010;BME280;51556;50.002;22.014;2023-01-28T14:00:46;99792.34;;;3.22;57.49
65010;BME280;51556;50.002;22.014;2023-01-28T14:12:27;99796.73;;;3.27;57.20
65010;BME280;51556;50.002;22.014;2023-01-28T14:20:21;99799.98;;;3.21;56.70
65010;BME280;51556;50.002;22.014;2023-01-28T14:22:48;99798.41;;;3.21;56.85
65010;BME280;51556;50.002;22.014;2023-01-28T14:25:21;99803.63;;;3.21;57.14
65010;BME280;51556;50.002;22.014;2023-01-28T14:27:51;99798.94;;;3.22;56.56
65010;BME280;51556;50.002;22.014;2023-01-28T14:30:25;99798.04;;;3.19;56.82
65010;BME280;51556;50.002;22.014;2023-01-28T14:32:59;99798.73;;;3.19;57.24
65010;BME280;51556;50.002;22.014;2023-01-28T14:35:31;99799.98;;;3.20;56.79
65010;BME280;51556;50.002;22.014;2023-01-28T14:37:59;99802.05;;;3.19;56.84
65010;BME280;51556;50.002;22.014;2023-01-28T14:40:27;99800.12;;;3.18;56.93
65010;BME280;51556;50.002;22.014;2023-01-28T14:42:54;99802.86;;;3.16;57.19
65010;BME280;51556;50.002;22.014;2023-01-28T14:50:56;99802.16;;;3.15;57.00
65010;BME280;51556;50.002;22.014;2023-01-28T14:53:35;99805.80;;;3.15;57.08
65010;BME280;51556;50.002;22.014;2023-01-28T14:58:52;99809.13;;;3.16;57.07
65010;BME280;51556;50.002;22.014;2023-01-28T15:01:24;99817.99;;;3.15;57.20
65010;BME280;51556;50.002;22.014;2023-01-28T15:03:50;99814.80;;;3.10;56.88
65010;BME280;51556;50.002;22.014;2023-01-28T15:06:32;99817.52;;;3.05;56.79
65010;BME280;51556;50.002;22.014;2023-01-28T15:09:11;99820.10;;;3.03;57.15
65010;BME280;51556;50.002;22.014;2023-01-28T15:11:40;99819.04;;;3.02;57.33